sensor_id;sensor_type;location;lat;lon;timestamp;pressure;altitude;pressure_sealevel;temperature;humidity
19096;BME280;9680;52.520;13.332;2023-05-16T00:01:58;100617.25;;;14.66;71.21
19096;BME280;9680;52.520;13.332;2023-05-16T00:04:25;100623.03;;;14.73;71.11
19096;BME280;9680;52.520;13.332;2023-05-16T00:06:52;100621.97;;;14.75;71.30
19096;BME280;9680;52.520;13.332;2023-05-16T00:09:19;100624.44;;;14.78;70.99
19096;BME280;9680;52.520;13.332;2023-05-16T00:11:46;100624.34;;;14.80;70.97
19096;BME280;9680;52.520;13.332;2023-05-16T00:14:14;100627.22;;;14.75;71.35
19096;BME280;9680;52.520;13.332;2023-05-16T00:16:41;100631.72;;;14.73;71.56
19096;BME280;9680;52.520;13.332;2023-05-16T00:19:08;100633.50;;;14.73;71.55
19096;BME280;9680;52.520;13.332;2023-05-16T00:21:35;100638.66;;;14.74;71.20
19096;BME280;9680;52.520;13.332;2023-05-16T00:24:03;100635.19;;;14.74;71.22
19096;BME280;9680;52.520;13.332;2023-05-16T00:26:30;100633.34;;;14.76;71.34
19096;BME280;9680;52.520;13.332;2023-05-16T00:28:56;100635.28;;;14.72;71.49
19096;BME280;9680;52.520;13.332;2023-05-16T00:31:25;100635.28;;;14.72;71.72
19096;BME280;9680;52.520;13.332;2023-05-16T00:33:51;100630.78;;;14.74;71.70
19096;BME280;9680;52.520;13.332;2023-05-16T00:36:19;100639.41;;;14.76;71.67
19096;BME280;9680;52.520;13.332;2023-05-16T00:38:46;100640.25;;;14.77;71.29
19096;BME280;9680;52.520;13.332;2023-05-16T00:41:13;100640.50;;;14.72;71.59
19096;BME280;9680;52.520;13.332;2023-05-16T00:43:40;100633.31;;;14.60;72.56
19096;BME280;9680;52.520;13.332;2023-05-16T00:46:07;100640.78;;;14.51;72.67
19096;BME280;9680;52.520;13.332;2023-05-16T00:48:35;100637.28;;;14.51;72.60
19096;BME280;9680;52.520;13.332;2023-05-16T00:51:02;100645.50;;;14.45;73.17
19096;BME280;9680;52.520;13.332;2023-05-16T00:53:33;100650.16;;;14.39;73.89
19096;BME280;9680;52.520;13.332;2023-05-16T00:56:02;100646.19;;;14.32;74.00
19096;BME280;9680;52.520;13.332;2023-05-16T00:58:30;100655.38;;;14.23;74.75
19096;BME280;9680;52.520;13.332;2023-05-16T01:00:58;100660.38;;;14.12;74.97
19096;BME280;9680;52.520;13.332;2023-05-16T01:03:26;100664.41;;;14.02;75.59
19096;BME280;9680;52.520;13.332;2023-05-16T01:05:55;100668.53;;;13.90;76.56
19096;BME280;9680;52.520;13.332;2023-05-16T01:08:22;100678.56;;;13.81;77.46
19096;BME280;9680;52.520;13.332;2023-05-16T01:10:58;100675.44;;;13.75;77.92
19096;BME280;9680;52.520;13.332;2023-05-16T01:13:31;100676.69;;;13.67;78.41
19096;BME280;9680;52.520;13.332;2023-05-16T01:16:03;100678.00;;;13.59;78.69
19096;BME280;9680;52.520;13.332;2023-05-16T01:18:36;100684.00;;;13.61;78.85
19096;BME280;9680;52.520;13.332;2023-05-16T01:21:11;100680.47;;;13.62;78.74
19096;BME280;9680;52.520;13.332;2023-05-16T01:23:50;100686.41;;;13.65;78.16
19096;BME280;9680;52.520;13.332;2023-05-16T01:26:20;100690.53;;;13.69;77.64
19096;BME280;9680;52.520;13.332;2023-05-16T01:28:49;100692.56;;;13.64;77.89
19096;BME280;9680;52.520;13.332;2023-05-16T01:31:17;100692.78;;;13.60;77.86
19096;BME280;9680;52.520;13.332;2023-05-16T01:33:48;100689.78;;;13.50;77.64
19096;BME280;9680;52.520;13.332;2023-05-16T01:36:21;100702.34;;;13.43;77.46
19096;BME280;9680;52.520;13.332;2023-05-16T01:38:58;100707.84;;;13.37;77.78
19096;BME280;9680;52.520;13.332;2023-05-16T01:41:38;100710.84;;;13.29;77.87
19096;BME280;9680;52.520;13.332;2023-05-16T01:44:12;100710.69;;;13.32;77.57
19096;BME280;9680;52.520;13.332;2023-05-16T01:46:43;100711.56;;;13.33;77.32
19096;BME280;9680;52.520;13.332;2023-05-16T01:49:15;100718.91;;;13.24;77.53
19096;BME280;9680;52.520;13.332;2023-05-16T01:51:44;100725.22;;;13.20;77.42
19096;BME280;9680;52.520;13.332;2023-05-16T01:54:17;100722.06;;;13.14;77.32
19096;BME280;9680;52.520;13.332;2023-05-16T01:56:50;100733.75;;;13.06;77.20
19096;BME280;9680;52.520;13.332;2023-05-16T01:59:19;100735.03;;;12.98;77.55
19096;BME280;9680;52.520;13.332;2023-05-16T02:01:47;100737.75;;;12.96;77.35
19096;BME280;9680;52.520;13.332;2023-05-16T02:04:14;100748.25;;;12.94;77.68
19096;BME280;9680;52.520;13.332;2023-05-16T02:06:41;100750.81;;;12.96;77.14
19096;BME280;9680;52.520;13.332;2023-05-16T02:09:07;100757.06;;;12.92;77.20
19096;BME280;9680;52.520;13.332;2023-05-16T02:11:34;100749.53;;;12.86;76.71
19096;BME280;9680;52.520;13.332;2023-05-16T02:14:02;100754.00;;;12.84;76.75
19096;BME280;9680;52.520;13.332;2023-05-16T02:16:29;100759.50;;;12.77;76.72
19096;BME280;9680;52.520;13.332;2023-05-16T02:18:57;100760.38;;;12.78;76.84
19096;BME280;9680;52.520;13.332;2023-05-16T02:21:24;100764.09;;;12.72;76.27
19096;BME280;9680;52.520;13.332;2023-05-16T02:23:51;100761.88;;;12.64;76.25
19096;BME280;9680;52.520;13.332;2023-05-16T02:26:17;100758.09;;;12.70;76.29
19096;BME280;9680;52.520;13.332;2023-05-16T02:28:45;100761.56;;;12.71;76.06
19096;BME280;9680;52.520;13.332;2023-05-16T02:31:24;100767.72;;;12.70;75.55
19096;BME280;9680;52.520;13.332;2023-05-16T02:33:51;100768.69;;;12.67;75.55
19096;BME280;9680;52.520;13.332;2023-05-16T02:36:18;100775.47;;;12.71;75.44
19096;BME280;9680;52.520;13.332;2023-05-16T02:38:45;100773.00;;;12.68;75.31
19096;BME280;9680;52.520;13.332;2023-05-16T02:41:12;100776.81;;;12.61;75.44
19096;BME280;9680;52.520;13.332;2023-05-16T02:43:40;100789.31;;;12.54;76.07
19096;BME280;9680;52.520;13.332;2023-05-16T02:46:20;100797.56;;;12.45;76.11
19096;BME280;9680;52.520;13.332;2023-05-16T02:48:48;100797.50;;;12.46;76.63
19096;BME280;9680;52.520;13.332;2023-05-16T02:51:16;100802.75;;;12.46;76.48
19096;BME280;9680;52.520;13.332;2023-05-16T02:53:43;100809.66;;;12.47;76.23
19096;BME280;9680;52.520;13.332;2023-05-16T02:56:09;100796.59;;;12.47;76.27
19096;BME280;9680;52.520;13.332;2023-05-16T02:58:36;100803.72;;;12.44;76.61
19096;BME280;9680;52.520;13.332;2023-05-16T03:01:03;100805.19;;;12.30;76.61
19096;BME280;9680;52.520;13.332;2023-05-16T03:03:30;100807.50;;;12.36;76.91
19096;BME280;9680;52.520;13.332;2023-05-16T03:06:01;100811.34;;;12.48;76.62
19096;BME280;9680;52.520;13.332;2023-05-16T03:08:28;100817.50;;;12.47;76.19
19096;BME280;9680;52.520;13.332;2023-05-16T03:10:55;100829.50;;;12.51;76.27
19096;BME280;9680;52.520;13.332;2023-05-16T03:13:22;100839.09;;;12.51;75.80
19096;BME280;9680;52.520;13.332;2023-05-16T03:15:49;100832.25;;;12.48;75.82
19096;BME280;9680;52.520;13.332;2023-05-16T03:18:16;100836.44;;;12.52;76.12
19096;BME280;9680;52.520;13.332;2023-05-16T03:20:43;100840.78;;;12.52;75.88
19096;BME280;9680;52.520;13.332;2023-05-16T03:23:11;100845.19;;;12.51;75.96
19096;BME280;9680;52.520;13.332;2023-05-16T03:25:38;100841.94;;;12.46;76.05
19096;BME280;9680;52.520;13.332;2023-05-16T03:28:07;100854.84;;;12.49;76.01
19096;BME280;9680;52.520;13.332;2023-05-16T03:30:34;100856.75;;;12.46;75.90
19096;BME280;9680;52.520;13.332;2023-05-16T03:33:01;100853.75;;;12.34;76.29
19096;BME280;9680;52.520;13.332;2023-05-16T03:35:28;100852.13;;;12.32;76.65
19096;BME280;9680;52.520;13.332;2023-05-16T03:37:55;100852.19;;;12.30;76.53
19096;BME280;9680;52.520;13.332;2023-05-16T03:40:24;100863.16;;;12.38;76.45
19096;BME280;9680;52.520;13.332;2023-05-16T03:42:51;100859.91;;;12.33;76.53
19096;BME280;9680;52.520;13.332;2023-05-16T03:45:18;100859.13;;;12.31;76.56
19096;BME280;9680;52.520;13.332;2023-05-16T03:47:45;100863.75;;;12.24;76.51
19096;BME280;9680;52.520;13.332;2023-05-16T03:50:12;100854.09;;;12.27;76.43
19096;BME280;9680;52.520;13.332;2023-05-16T03:52:38;100865.66;;;12.21;76.69
19096;BME280;9680;52.520;13.332;2023-05-16T03:55:06;100870.09;;;12.19;76.25
19096;BME280;9680;52.520;13.332;2023-05-16T03:57:36;100867.53;;;12.17;76.20
19096;BME280;9680;52.520;13.332;2023-05-16T04:00:04;100874.97;;;12.06;76.93
19096;BME280;9680;52.520;13.332;2023-05-16T04:02:37;100864.41;;;12.09;76.92
19096;BME280;9680;52.520;13.332;2023-05-16T04:05:06;100870.13;;;11.97;77.15
19096;BME280;9680;52.520;13.332;2023-05-16T04:07:33;100868.69;;;11.89;77.50
19096;BME280;9680;52.520;13.332;2023-05-16T04:10:00;100872.84;;;11.93;77.70
19096;BME280;9680;52.520;13.332;2023-05-16T04:12:27;100883.28;;;11.93;77.93
19096;BME280;9680;52.520;13.332;2023-05-16T04:14:55;100885.78;;;11.97;77.75
19096;BME280;9680;52.520;13.332;2023-05-16T04:17:22;100890.88;;;12.00;77.69
19096;BME280;9680;52.520;13.332;2023-05-16T04:19:51;100897.13;;;11.95;77.50
19096;BME280;9680;52.520;13.332;2023-05-16T04:22:19;100900.75;;;11.93;77.78
19096;BME280;9680;52.520;13.332;2023-05-16T04:24:46;100905.22;;;11.89;77.71
19096;BME280;9680;52.520;13.332;2023-05-16T04:27:13;100903.34;;;11.93;77.86
19096;BME280;9680;52.520;13.332;2023-05-16T04:29:40;100907.66;;;11.94;77.81
19096;BME280;9680;52.520;13.332;2023-05-16T04:32:08;100910.94;;;11.99;77.58
19096;BME280;9680;52.520;13.332;2023-05-16T04:34:35;100915.06;;;12.05;77.02
19096;BME280;9680;52.520;13.332;2023-05-16T04:37:03;100916.63;;;12.09;76.55
19096;BME280;9680;52.520;13.332;2023-05-16T04:39:32;100913.53;;;11.99;76.77
19096;BME280;9680;52.520;13.332;2023-05-16T04:41:58;100924.72;;;12.03;76.43
19096;BME280;9680;52.520;13.332;2023-05-16T04:44:26;100921.28;;;12.02;76.35
19096;BME280;9680;52.520;13.332;2023-05-16T04:46:53;100926.28;;;12.07;76.27
19096;BME280;9680;52.520;13.332;2023-05-16T04:49:22;100937.59;;;12.07;76.59
19096;BME280;9680;52.520;13.332;2023-05-16T04:51:49;100938.44;;;12.08;76.21
19096;BME280;9680;52.520;13.332;2023-05-16T04:54:16;100937.63;;;12.06;76.09
19096;BME280;9680;52.520;13.332;2023-05-16T04:56:43;100939.59;;;12.01;75.97
19096;BME280;9680;52.520;13.332;2023-05-16T04:59:10;100946.88;;;11.92;76.31
19096;BME280;9680;52.520;13.332;2023-05-16T05:01:37;100946.88;;;11.92;76.43
19096;BME280;9680;52.520;13.332;2023-05-16T05:04:04;100953.50;;;12.01;76.32
19096;BME280;9680;52.520;13.332;2023-05-16T05:06:32;100954.19;;;12.06;75.91
19096;BME280;9680;52.520;13.332;2023-05-16T05:08:59;100964.66;;;12.05;76.26
19096;BME280;9680;52.520;13.332;2023-05-16T05:11:25;100961.09;;;12.07;75.58
19096;BME280;9680;52.520;13.332;2023-05-16T05:13:52;100969.19;;;12.01;75.34
19096;BME280;9680;52.520;13.332;2023-05-16T05:16:19;100977.81;;;12.03;75.36
19096;BME280;9680;52.520;13.332;2023-05-16T05:18:46;100981.31;;;12.02;75.48
19096;BME280;9680;52.520;13.332;2023-05-16T05:21:13;100978.84;;;11.98;75.48
19096;BME280;9680;52.520;13.332;2023-05-16T05:23:41;100989.25;;;11.99;75.10
19096;BME280;9680;52.520;13.332;2023-05-16T05:26:08;100990.16;;;11.98;75.69
19096;BME280;9680;52.520;13.332;2023-05-16T05:28:35;101001.34;;;12.02;75.59
19096;BME280;9680;52.520;13.332;2023-05-16T05:31:03;100999.47;;;12.05;75.52
19096;BME280;9680;52.520;13.332;2023-05-16T05:33:30;101000.94;;;12.13;75.06
19096;BME280;9680;52.520;13.332;2023-05-16T05:35:57;101000.97;;;12.11;75.19
19096;BME280;9680;52.520;13.332;2023-05-16T05:38:25;101001.22;;;12.05;75.00
19096;BME280;9680;52.520;13.332;2023-05-16T05:40:53;101006.53;;;12.03;75.20
19096;BME280;9680;52.520;13.332;2023-05-16T05:43:20;101013.38;;;12.06;75.26
19096;BME280;9680;52.520;13.332;2023-05-16T05:45:47;101019.31;;;12.09;75.13
19096;BME280;9680;52.520;13.332;2023-05-16T05:48:13;101020.25;;;12.08;74.35
19096;BME280;9680;52.520;13.332;2023-05-16T05:50:41;101026.84;;;12.17;74.51
19096;BME280;9680;52.520;13.332;2023-05-16T05:53:08;101026.66;;;12.22;73.56
19096;BME280;9680;52.520;13.332;2023-05-16T05:55:35;101022.97;;;12.28;72.84
19096;BME280;9680;52.520;13.332;2023-05-16T05:58:03;101028.06;;;12.31;72.49
19096;BME280;9680;52.520;13.332;2023-05-16T06:00:30;101041.78;;;12.36;71.74
19096;BME280;9680;52.520;13.332;2023-05-16T06:02:57;101040.56;;;12.22;71.05
19096;BME280;9680;52.520;13.332;2023-05-16T06:05:23;101041.59;;;12.18;71.46
19096;BME280;9680;52.520;13.332;2023-05-16T06:07:50;101045.00;;;12.20;71.92
19096;BME280;9680;52.520;13.332;2023-05-16T06:10:17;101040.09;;;12.13;71.33
19096;BME280;9680;52.520;13.332;2023-05-16T06:12:44;101046.28;;;12.10;71.52
19096;BME280;9680;52.520;13.332;2023-05-16T06:15:12;101044.34;;;12.15;71.81
19096;BME280;9680;52.520;13.332;2023-05-16T06:17:39;101042.63;;;12.14;71.39
19096;BME280;9680;52.520;13.332;2023-05-16T06:20:07;101046.69;;;12.21;70.96
19096;BME280;9680;52.520;13.332;2023-05-16T06:22:34;101047.69;;;12.19;71.31
19096;BME280;9680;52.520;13.332;2023-05-16T06:25:01;101043.66;;;12.10;71.25
19096;BME280;9680;52.520;13.332;2023-05-16T06:27:28;101050.22;;;12.20;71.50
19096;BME280;9680;52.520;13.332;2023-05-16T06:29:57;101044.44;;;12.34;71.05
19096;BME280;9680;52.520;13.332;2023-05-16T06:32:25;101050.75;;;12.51;70.54
19096;BME280;9680;52.520;13.332;2023-05-16T06:34:52;101063.47;;;12.60;69.49
19096;BME280;9680;52.520;13.332;2023-05-16T06:37:19;101060.50;;;12.47;69.81
19096;BME280;9680;52.520;13.332;2023-05-16T06:39:48;101064.31;;;12.38;69.69
19096;BME280;9680;52.520;13.332;2023-05-16T06:42:15;101050.47;;;12.36;69.87
19096;BME280;9680;52.520;13.332;2023-05-16T06:44:42;101056.47;;;12.38;70.05
19096;BME280;9680;52.520;13.332;2023-05-16T06:47:09;101060.09;;;12.57;69.81
19096;BME280;9680;52.520;13.332;2023-05-16T06:49:37;101076.06;;;12.71;69.10
19096;BME280;9680;52.520;13.332;2023-05-16T06:52:04;101080.22;;;12.55;68.72
19096;BME280;9680;52.520;13.332;2023-05-16T06:54:31;101084.13;;;12.44;69.38
19096;BME280;9680;52.520;13.332;2023-05-16T06:56:57;101090.94;;;12.48;69.44
19096;BME280;9680;52.520;13.332;2023-05-16T06:59:25;101089.69;;;12.57;69.40
19096;BME280;9680;52.520;13.332;2023-05-16T07:01:52;101086.50;;;12.71;69.50
19096;BME280;9680;52.520;13.332;2023-05-16T07:04:19;101081.75;;;12.81;68.89
19096;BME280;9680;52.520;13.332;2023-05-16T07:06:47;101079.16;;;12.81;68.22
19096;BME280;9680;52.520;13.332;2023-05-16T07:09:13;101094.72;;;12.84;68.00
19096;BME280;9680;52.520;13.332;2023-05-16T07:11:40;101092.66;;;12.91;68.03
19096;BME280;9680;52.520;13.332;2023-05-16T07:14:07;101096.00;;;12.94;67.75
19096;BME280;9680;52.520;13.332;2023-05-16T07:16:34;101096.19;;;12.90;67.25
19096;BME280;9680;52.520;13.332;2023-05-16T07:19:01;101096.09;;;12.93;67.78
19096;BME280;9680;52.520;13.332;2023-05-16T07:21:28;101103.34;;;13.07;67.70
19096;BME280;9680;52.520;13.332;2023-05-16T07:23:56;101104.19;;;13.28;66.26
19096;BME280;9680;52.520;13.332;2023-05-16T07:26:23;101099.31;;;13.39;66.20
19096;BME280;9680;52.520;13.332;2023-05-16T07:28:49;101110.31;;;13.48;65.81
19096;BME280;9680;52.520;13.332;2023-05-16T07:31:16;101109.16;;;13.74;65.86
19096;BME280;9680;52.520;13.332;2023-05-16T07:33:43;101111.22;;;13.87;64.28
19096;BME280;9680;52.520;13.332;2023-05-16T07:36:11;101107.75;;;13.86;63.86
19096;BME280;9680;52.520;13.332;2023-05-16T07:38:38;101117.75;;;13.97;64.28
19096;BME280;9680;52.520;13.332;2023-05-16T07:41:07;101114.75;;;14.05;63.27
19096;BME280;9680;52.520;13.332;2023-05-16T07:43:34;101114.34;;;13.95;62.39
19096;BME280;9680;52.520;13.332;2023-05-16T07:46:01;101111.63;;;13.58;63.29
19096;BME280;9680;52.520;13.332;2023-05-16T07:48:28;101112.31;;;13.43;63.91
19096;BME280;9680;52.520;13.332;2023-05-16T07:50:55;101108.63;;;13.47;64.24
19096;BME280;9680;52.520;13.332;2023-05-16T07:53:22;101116.63;;;13.44;63.89
19096;BME280;9680;52.520;13.332;2023-05-16T07:55:48;101129.69;;;13.44;64.39
19096;BME280;9680;52.520;13.332;2023-05-16T07:58:17;101130.28;;;13.50;63.67
19096;BME280;9680;52.520;13.332;2023-05-16T08:00:44;101129.50;;;13.48;63.96
19096;BME280;9680;52.520;13.332;2023-05-16T08:03:11;101131.63;;;13.38;64.32
19096;BME280;9680;52.520;13.332;2023-05-16T08:05:37;101124.59;;;13.20;64.49
19096;BME280;9680;52.520;13.332;2023-05-16T08:08:04;101129.81;;;13.20;64.87
19096;BME280;9680;52.520;13.332;2023-05-16T08:10:31;101137.41;;;13.26;64.99
19096;BME280;9680;52.520;13.332;2023-05-16T08:12:58;101146.91;;;13.29;64.88
19096;BME280;9680;52.520;13.332;2023-05-16T08:15:30;101143.88;;;13.38;64.81
19096;BME280;9680;52.520;13.332;2023-05-16T08:17:57;101173.22;;;13.46;64.22
19096;BME280;9680;52.520;13.332;2023-05-16T08:20:25;101164.47;;;13.25;64.19
19096;BME280;9680;52.520;13.332;2023-05-16T08:22:52;101172.31;;;13.04;64.72
19096;BME280;9680;52.520;13.332;2023-05-16T08:25:20;101173.81;;;12.89;65.43
19096;BME280;9680;52.520;13.332;2023-05-16T08:27:49;101181.28;;;12.76;65.78
19096;BME280;9680;52.520;13.332;2023-05-16T08:30:16;101183.63;;;12.82;66.14
19096;BME280;9680;52.520;13.332;2023-05-16T08:32:45;101175.31;;;12.95;66.12
19096;BME280;9680;52.520;13.332;2023-05-16T08:35:12;101176.50;;;13.08;65.10
19096;BME280;9680;52.520;13.332;2023-05-16T08:37:38;101175.59;;;13.09;65.05
19096;BME280;9680;52.520;13.332;2023-05-16T08:40:07;101182.53;;;13.10;64.22
19096;BME280;9680;52.520;13.332;2023-05-16T08:42:35;101181.28;;;13.19;64.75
19096;BME280;9680;52.520;13.332;2023-05-16T08:45:02;101188.38;;;13.38;64.56
19096;BME280;9680;52.520;13.332;2023-05-16T08:47:31;101173.28;;;13.45;63.89
19096;BME280;9680;52.520;13.332;2023-05-16T08:50:03;101178.22;;;13.51;63.15
19096;BME280;9680;52.520;13.332;2023-05-16T08:52:36;101170.94;;;13.59;63.35
19096;BME280;9680;52.520;13.332;2023-05-16T08:55:06;101161.19;;;13.82;63.10
19096;BME280;9680;52.520;13.332;2023-05-16T08:57:36;101156.66;;;14.05;61.97
19096;BME280;9680;52.520;13.332;2023-05-16T09:00:05;101165.25;;;14.27;60.77
19096;BME280;9680;52.520;13.332;2023-05-16T09:02:36;101163.63;;;14.62;61.04
19096;BME280;9680;52.520;13.332;2023-05-16T09:05:08;101157.78;;;14.93;58.87
19096;BME280;9680;52.520;13.332;2023-05-16T09:07:35;101143.94;;;14.90;58.99
19096;BME280;9680;52.520;13.332;2023-05-16T09:10:02;101152.97;;;14.84;58.55
19096;BME280;9680;52.520;13.332;2023-05-16T09:12:31;101156.84;;;14.57;58.91
19096;BME280;9680;52.520;13.332;2023-05-16T09:14:59;101163.22;;;14.52;59.54
19096;BME280;9680;52.520;13.332;2023-05-16T09:17:34;101168.69;;;14.47;59.62
19096;BME280;9680;52.520;13.332;2023-05-16T09:20:11;101165.44;;;14.42;59.49
19096;BME280;9680;52.520;13.332;2023-05-16T09:22:38;101168.91;;;14.23;59.19
19096;BME280;9680;52.520;13.332;2023-05-16T09:25:06;101178.97;;;14.13;60.15
19096;BME280;9680;52.520;13.332;2023-05-16T09:27:34;101180.97;;;14.08;60.13
19096;BME280;9680;52.520;13.332;2023-05-16T09:30:01;101178.22;;;14.11;60.26
19096;BME280;9680;52.520;13.332;2023-05-16T09:32:30;101179.41;;;14.04;59.30
19096;BME280;9680;52.520;13.332;2023-05-16T09:34:58;101195.75;;;14.09;59.46
19096;BME280;9680;52.520;13.332;2023-05-16T09:37:26;101186.13;;;14.10;58.66
19096;BME280;9680;52.520;13.332;2023-05-16T09:39:53;101190.22;;;13.96;58.65
19096;BME280;9680;52.520;13.332;2023-05-16T09:42:20;101190.56;;;13.89;59.30
19096;BME280;9680;52.520;13.332;2023-05-16T09:44:48;101204.44;;;13.91;59.09
19096;BME280;9680;52.520;13.332;2023-05-16T09:47:16;101190.06;;;13.80;59.19
19096;BME280;9680;52.520;13.332;2023-05-16T09:49:47;101207.94;;;13.50;60.08
19096;BME280;9680;52.520;13.332;2023-05-16T09:52:17;101210.41;;;13.32;60.93
19096;BME280;9680;52.520;13.332;2023-05-16T09:54:47;101220.69;;;13.37;61.23
19096;BME280;9680;52.520;13.332;2023-05-16T09:57:17;101222.59;;;13.54;61.35
19096;BME280;9680;52.520;13.332;2023-05-16T09:59:46;101220.78;;;13.77;60.94
19096;BME280;9680;52.520;13.332;2023-05-16T10:02:13;101218.84;;;13.80;60.36
19096;BME280;9680;52.520;13.332;2023-05-16T10:04:51;101226.97;;;13.74;60.73
19096;BME280;9680;52.520;13.332;2023-05-16T10:07:18;101229.81;;;13.69;60.66
19096;BME280;9680;52.520;13.332;2023-05-16T10:09:48;101220.56;;;13.61;61.18
19096;BME280;9680;52.520;13.332;2023-05-16T10:12:19;101227.34;;;13.66;61.65
19096;BME280;9680;52.520;13.332;2023-05-16T10:14:49;101230.88;;;13.65;61.48
19096;BME280;9680;52.520;13.332;2023-05-16T10:17:16;101218.59;;;13.66;61.35
19096;BME280;9680;52.520;13.332;2023-05-16T10:19:44;101215.59;;;13.75;60.94
19096;BME280;9680;52.520;13.332;2023-05-16T10:22:12;101223.94;;;13.83;60.81
19096;BME280;9680;52.520;13.332;2023-05-16T10:24:43;101213.97;;;14.12;60.69
19096;BME280;9680;52.520;13.332;2023-05-16T10:27:15;101208.06;;;14.65;58.67
19096;BME280;9680;52.520;13.332;2023-05-16T10:29:42;101212.75;;;14.77;58.02
19096;BME280;9680;52.520;13.332;2023-05-16T10:32:10;101215.50;;;14.74;58.23
19096;BME280;9680;52.520;13.332;2023-05-16T10:34:38;101214.53;;;14.77;58.33
19096;BME280;9680;52.520;13.332;2023-05-16T10:37:06;101218.25;;;14.52;58.17
19096;BME280;9680;52.520;13.332;2023-05-16T10:39:34;101222.38;;;14.19;59.08
19096;BME280;9680;52.520;13.332;2023-05-16T10:42:01;101231.28;;;13.96;60.05
19096;BME280;9680;52.520;13.332;2023-05-16T10:44:32;101239.38;;;13.71;60.94
19096;BME280;9680;52.520;13.332;2023-05-16T10:46:59;101244.03;;;13.42;61.89
19096;BME280;9680;52.520;13.332;2023-05-16T10:49:29;101254.00;;;13.11;62.18
19096;BME280;9680;52.520;13.332;2023-05-16T10:52:05;101249.25;;;12.99;62.66
19096;BME280;9680;52.520;13.332;2023-05-16T10:54:40;101253.81;;;12.93;62.61
19096;BME280;9680;52.520;13.332;2023-05-16T10:57:09;101251.56;;;13.06;62.74
19096;BME280;9680;52.520;13.332;2023-05-16T10:59:45;101240.09;;;13.53;62.10
19096;BME280;9680;52.520;13.332;2023-05-16T11:02:24;101239.88;;;14.19;60.02
19096;BME280;9680;52.520;13.332;2023-05-16T11:04:51;101239.19;;;14.53;58.22
19096;BME280;9680;52.520;13.332;2023-05-16T11:07:19;101232.66;;;14.81;57.46
19096;BME280;9680;52.520;13.332;2023-05-16T11:10:00;101233.47;;;15.01;55.67
19096;BME280;9680;52.520;13.332;2023-05-16T11:12:41;101237.19;;;15.14;54.40
19096;BME280;9680;52.520;13.332;2023-05-16T11:15:22;101239.41;;;15.05;54.21
19096;BME280;9680;52.520;13.332;2023-05-16T11:17:50;101245.66;;;15.02;54.00
19096;BME280;9680;52.520;13.332;2023-05-16T11:20:29;101242.00;;;14.87;54.64
19096;BME280;9680;52.520;13.332;2023-05-16T11:23:19;101235.38;;;14.80;54.79
19096;BME280;9680;52.520;13.332;2023-05-16T11:25:47;101261.34;;;14.84;54.60
19096;BME280;9680;52.520;13.332;2023-05-16T11:28:16;101257.81;;;14.66;54.26
19096;BME280;9680;52.520;13.332;2023-05-16T11:30:46;101261.72;;;14.57;54.65
19096;BME280;9680;52.520;13.332;2023-05-16T11:33:13;101278.66;;;14.69;54.53
19096;BME280;9680;52.520;13.332;2023-05-16T11:35:40;101261.06;;;14.91;54.32
19096;BME280;9680;52.520;13.332;2023-05-16T11:38:11;101262.81;;;15.27;53.37
19096;BME280;9680;52.520;13.332;2023-05-16T11:40:44;101243.13;;;15.89;52.48
19096;BME280;9680;52.520;13.332;2023-05-16T11:43:17;101249.94;;;16.58;51.51
19096;BME280;9680;52.520;13.332;2023-05-16T11:45:46;101246.25;;;17.09;48.60
19096;BME280;9680;52.520;13.332;2023-05-16T11:48:22;101251.03;;;17.33;48.01
19096;BME280;9680;52.520;13.332;2023-05-16T11:50:49;101235.22;;;17.33;47.16
19096;BME280;9680;52.520;13.332;2023-05-16T11:53:18;101238.47;;;17.22;46.40
19096;BME280;9680;52.520;13.332;2023-05-16T11:55:46;101234.63;;;16.81;46.44
19096;BME280;9680;52.520;13.332;2023-05-16T11:58:17;101249.34;;;16.53;47.56
19096;BME280;9680;52.520;13.332;2023-05-16T12:00:49;101245.25;;;16.48;47.78
19096;BME280;9680;52.520;13.332;2023-05-16T12:03:18;101247.28;;;16.58;48.05
19096;BME280;9680;52.520;13.332;2023-05-16T12:05:51;101245.25;;;16.64;48.07
19096;BME280;9680;52.520;13.332;2023-05-16T12:08:19;101254.78;;;16.66;46.92
19096;BME280;9680;52.520;13.332;2023-05-16T12:10:48;101242.63;;;16.32;46.88
19096;BME280;9680;52.520;13.332;2023-05-16T12:13:16;101250.94;;;16.40;47.35
19096;BME280;9680;52.520;13.332;2023-05-16T12:15:44;101247.72;;;16.51;47.85
19096;BME280;9680;52.520;13.332;2023-05-16T12:18:12;101246.78;;;16.68;47.20
19096;BME280;9680;52.520;13.332;2023-05-16T12:20:40;101244.41;;;16.79;47.03
19096;BME280;9680;52.520;13.332;2023-05-16T12:23:10;101257.66;;;16.78;46.71
19096;BME280;9680;52.520;13.332;2023-05-16T12:25:37;101251.28;;;16.98;46.23
19096;BME280;9680;52.520;13.332;2023-05-16T12:28:08;101254.22;;;17.24;45.79
19096;BME280;9680;52.520;13.332;2023-05-16T12:30:39;101260.66;;;17.49;45.37
19096;BME280;9680;52.520;13.332;2023-05-16T12:33:09;101256.06;;;17.52;44.63
19096;BME280;9680;52.520;13.332;2023-05-16T12:35:39;101258.47;;;17.71;44.47
19096;BME280;9680;52.520;13.332;2023-05-16T12:38:07;101250.19;;;17.63;43.76
19096;BME280;9680;52.520;13.332;2023-05-16T12:40:35;101259.03;;;17.91;43.91
19096;BME280;9680;52.520;13.332;2023-05-16T12:43:03;101260.28;;;18.14;42.41
19096;BME280;9680;52.520;13.332;2023-05-16T12:45:32;101259.06;;;18.20;42.71
19096;BME280;9680;52.520;13.332;2023-05-16T12:48:03;101267.25;;;18.30;42.91
19096;BME280;9680;52.520;13.332;2023-05-16T12:50:32;101268.34;;;18.40;42.82
19096;BME280;9680;52.520;13.332;2023-05-16T12:53:00;101270.94;;;18.27;41.89
19096;BME280;9680;52.520;13.332;2023-05-16T12:55:27;101270.22;;;17.80;41.68
19096;BME280;9680;52.520;13.332;2023-05-16T12:57:55;101270.97;;;17.37;42.77